Airfield :
LOGIN :

Register | Disclaimer

   EN    FR    IT 

 










Legend :    VFR   Marginal VFR   IFR   Intensive IFR   Very Intensive IFR
Visi :
Ceiling :
>= 8 km
>= 3000ft
5 to 8 km
1000 to 3000 ft
1500m to 5 km
500 to 1000 ft
800 to 1500m
200 to 500 ft
< 800m
< 200 ft
Symbols :   Thunderstorms  Fog  Heavy snow  Heavy precipitations  Wind > 20 kt
SIGMETs :     Misc.  Thunderstorms  Icing  Turbulence  Mountain Waves  Volcanic Ashes






- Airport Elevation : 468 ft
- IATA code : GRO


LEGE - Girona Costa Brava

CURRENT METAR :
  • 180500Z 03003KT 0200 R19/0350N R01/0350N FG VV002 17/17 Q1013 NOSIG

EXPIRED METARs :
  • 180430Z 02004KT 0100 R19/0250N R01/0325N FG VV001 17/17 Q1013 NOSIG
  • 180400Z VRB01KT 0100 R19/0350N R01/0450N FG VV001 17/17 Q1014 NOSIG
  • 180330Z 21001KT 0100 R19/0400N R01/0375N FG VV001 17/17 Q1013 NOSIG
  • 180300Z VRB01KT 0300 R19/0300N R01/0750D FG VV002 18/18 Q1013 NOSIG
  • 180230Z VRB01KT 0300 R19/0450D R01/0650U FG VV003 18/17 Q1013 NOSIG
  • 180200Z VRB02KT 0300 R19/0500D R01/0800U FG VV003 18/18 Q1014 NOSIG
  • 180141Z VRB02KT 0600 R19/0750N R01/1400D BCFG SCT020 18/18 Q1014 NOSIG
  • 180130Z VRB02KT 0800 R19/0800N R01/1700U VCFG SCT015 18/18 Q1014 NOSIG
  • 180100Z VRB02KT 6000 SCT005 19/19 Q1014 NOSIG
  • 180030Z VRB01KT 9000 SCT004 19/18 Q1015 NOSIG

TAF AMD TAF LEGE
Valid from the 18 at 01:00 until the 19 at 00:00 UTC


180156Z 1801/1824 VRB04KT CAVOK TX29/1814Z TN16/1806Z
TEMPO 1801/1807 2000 BR BKN010
TEMPO 1802/1806 0200 BCFG VV001
TEMPO 1813/1817 09008KT



MET'MAP, your aeronautical weather chart ! - Copyright ORBIFLY December 2007 - Disclaimer

ORBIFLY MET'MAP TEAM :

Programming & Development : Alexandra Zaïnal
Original concept : Baudouin d'Aumeries
Technical & hardware support : Manuel Goepfert
Assistance : Marc-Olivier Méhu




SOURCES & CREDITS :

   NOAA